createdAt,value
2023-02-11T00:02:06.953Z,-4.27
2023-02-11T00:04:50.027Z,-4.27
2023-02-11T00:07:35.736Z,-4.35
2023-02-11T00:10:18.861Z,-4.42
2023-02-11T00:13:02.099Z,-4.59
2023-02-11T00:15:45.227Z,-4.73
2023-02-11T00:18:29.254Z,-4.85
2023-02-11T00:21:14.775Z,-4.90
2023-02-11T00:24:02.260Z,-4.95
2023-02-11T00:26:46.069Z,-5.02
2023-02-11T00:29:29.182Z,-5.13
2023-02-11T00:32:12.531Z,-5.05
2023-02-11T00:34:55.691Z,-5.11
2023-02-11T00:37:38.749Z,-5.18
2023-02-11T00:40:23.276Z,-5.16
2023-02-11T00:43:06.373Z,-5.14
2023-02-11T00:45:49.861Z,-5.14
2023-02-11T00:48:33.630Z,-5.11
2023-02-11T00:51:16.851Z,-5.13
2023-02-11T00:53:59.822Z,-5.15
2023-02-11T00:56:44.319Z,-5.09
2023-02-11T00:59:27.382Z,-5.07
2023-02-11T01:02:10.414Z,-5.13
2023-02-11T01:04:53.513Z,-5.24
2023-02-11T01:07:36.664Z,-5.29
2023-02-11T01:10:19.946Z,-5.41
2023-02-11T01:13:06.601Z,-5.49
2023-02-11T01:15:50.179Z,-5.54
2023-02-11T01:18:33.584Z,-5.54
2023-02-11T01:21:16.634Z,-5.47
2023-02-11T01:23:59.654Z,-5.46
2023-02-11T01:26:42.741Z,-5.48
2023-02-11T01:29:27.282Z,-5.39
2023-02-11T01:32:10.368Z,-5.39
2023-02-11T01:34:53.471Z,-5.38
2023-02-11T01:37:36.521Z,-5.45
2023-02-11T01:40:19.840Z,-5.51
2023-02-11T01:43:02.815Z,-5.58
2023-02-11T01:46:00.599Z,-5.58
2023-02-11T01:48:45.533Z,-5.54
2023-02-11T01:51:34.049Z,-5.69
2023-02-11T01:54:43.730Z,-5.66
2023-02-11T01:57:29.697Z,-5.70
2023-02-11T02:00:15.515Z,-5.69
2023-02-11T02:03:04.133Z,-5.70
2023-02-11T02:05:52.695Z,-5.73
2023-02-11T02:08:40.299Z,-5.88
2023-02-11T02:11:23.935Z,-5.97
2023-02-11T02:14:07.100Z,-5.97
2023-02-11T02:16:50.425Z,-5.97
2023-02-11T02:20:08.912Z,-6.01
2023-02-11T02:23:36.448Z,-5.98
2023-02-11T02:26:58.027Z,-6.13
2023-02-11T02:30:04.450Z,-6.18
2023-02-11T02:33:22.274Z,-6.26
2023-02-11T02:36:15.306Z,-6.31
2023-02-11T02:39:02.802Z,-6.43
2023-02-11T02:41:47.953Z,-6.54
2023-02-11T02:44:32.181Z,-6.55
2023-02-11T02:47:15.245Z,-6.56
2023-02-11T02:49:59.822Z,-6.48
2023-02-11T02:52:53.748Z,-6.52
2023-02-11T02:55:48.463Z,-6.53
2023-02-11T02:59:07.866Z,-6.43
2023-02-11T03:02:04.073Z,-6.34
2023-02-11T03:04:54.432Z,-6.32
2023-02-11T03:07:46.014Z,-6.38
2023-02-11T03:10:34.356Z,-6.36
2023-02-11T03:13:20.984Z,-6.38
2023-02-11T03:16:09.545Z,-6.47
2023-02-11T03:18:58.391Z,-6.52
2023-02-11T03:21:43.722Z,-6.54
2023-02-11T03:24:32.254Z,-6.50
2023-02-11T03:27:22.126Z,-6.57
2023-02-11T03:30:11.588Z,-6.66
2023-02-11T03:32:59.304Z,-6.69
2023-02-11T03:35:49.108Z,-6.82
2023-02-11T03:38:36.175Z,-6.82
2023-02-11T03:41:24.575Z,-6.88
2023-02-11T03:44:08.723Z,-6.79
2023-02-11T03:46:53.524Z,-6.81
2023-02-11T03:49:39.708Z,-6.68
2023-02-11T03:52:26.049Z,-6.90
2023-02-11T03:55:13.574Z,-6.88
2023-02-11T03:57:58.438Z,-6.85
2023-02-11T04:00:43.500Z,-6.85
2023-02-11T04:03:26.614Z,-6.80
2023-02-11T04:06:10.148Z,-6.78
2023-02-11T04:08:53.322Z,-6.78
2023-02-11T04:11:36.396Z,-6.84
2023-02-11T04:14:20.800Z,-6.86
2023-02-11T04:17:04.009Z,-6.95
2023-02-11T04:19:47.083Z,-6.95
2023-02-11T04:22:30.703Z,-6.91
2023-02-11T04:25:13.818Z,-7.02
2023-02-11T04:27:57.115Z,-6.98
2023-02-11T04:30:41.730Z,-7.05
2023-02-11T04:33:25.024Z,-7.01
2023-02-11T04:36:09.038Z,-7.02
2023-02-11T04:38:52.081Z,-7.06
2023-02-11T04:41:35.511Z,-7.12
2023-02-11T04:44:18.621Z,-6.97
2023-02-11T04:47:03.307Z,-6.92
2023-02-11T04:49:47.548Z,-6.86
2023-02-11T04:52:30.618Z,-6.81
2023-02-11T04:55:13.864Z,-6.88
2023-02-11T04:57:56.926Z,-6.78
2023-02-11T05:00:40.011Z,-6.84
2023-02-11T05:03:24.467Z,-7.02
2023-02-11T05:06:08.374Z,-7.03
2023-02-11T05:08:51.635Z,-7.06
2023-02-11T05:11:34.733Z,-7.05
2023-02-11T05:14:17.843Z,-7.06
2023-02-11T05:17:00.969Z,-7.08
2023-02-11T05:19:45.546Z,-7.01
2023-02-11T05:22:28.702Z,-7.19
2023-02-11T05:25:11.913Z,-7.15
2023-02-11T05:27:55.031Z,-7.20
2023-02-11T05:30:38.193Z,-7.16
2023-02-11T05:33:21.372Z,-7.03
2023-02-11T05:36:08.900Z,-7.08
2023-02-11T05:38:52.085Z,-7.08
2023-02-11T05:41:35.120Z,-7.07
2023-02-11T05:44:18.096Z,-7.03
2023-02-11T05:47:01.584Z,-7.02
2023-02-11T05:49:44.612Z,-6.87
2023-02-11T05:52:29.098Z,-6.81
2023-02-11T05:55:12.213Z,-6.67
2023-02-11T05:57:55.206Z,-6.59
2023-02-11T06:00:38.587Z,-6.52
2023-02-11T06:03:21.722Z,-6.52
2023-02-11T06:06:05.147Z,-6.44
2023-02-11T06:08:49.629Z,-6.27
2023-02-11T06:11:32.617Z,-6.13
2023-02-11T06:14:15.698Z,-5.97
2023-02-11T06:16:58.791Z,-5.97
2023-02-11T06:19:41.935Z,-5.88
2023-02-11T06:22:25.044Z,-5.71
2023-02-11T06:25:11.136Z,-5.56
2023-02-11T06:27:54.237Z,-5.40
2023-02-11T06:30:37.972Z,-5.44
2023-02-11T06:33:21.132Z,-5.20
2023-02-11T06:36:05.116Z,-4.09
2023-02-11T06:38:48.812Z,-2.43
2023-02-11T06:41:33.789Z,-0.06
2023-02-11T06:44:16.873Z,1.61
2023-02-11T06:47:00.073Z,3.55
2023-02-11T06:49:43.099Z,4.76
2023-02-11T06:52:26.160Z,8.73
2023-02-11T06:55:09.910Z,9.50
2023-02-11T06:57:54.616Z,11.18
2023-02-11T07:00:38.366Z,11.23
2023-02-11T07:03:21.751Z,14.23
2023-02-11T07:06:05.906Z,16.66
2023-02-11T07:08:49.638Z,18.22
2023-02-11T07:11:33.698Z,19.59
2023-02-11T07:14:18.664Z,20.20
2023-02-11T07:17:01.709Z,19.89
2023-02-11T07:19:44.849Z,18.50
2023-02-11T07:22:27.977Z,16.33
2023-02-11T07:25:11.104Z,18.85
2023-02-11T07:27:54.166Z,21.96
2023-02-11T07:30:38.754Z,21.76
2023-02-11T07:33:21.962Z,24.02
2023-02-11T07:36:06.735Z,25.63
2023-02-11T07:38:50.558Z,25.61
2023-02-11T07:41:37.710Z,18.29
2023-02-11T07:44:21.269Z,18.01
2023-02-11T07:47:06.346Z,17.51
2023-02-11T07:49:49.372Z,15.44
2023-02-11T07:52:32.747Z,13.56
2023-02-11T07:55:15.963Z,18.28
2023-02-11T07:57:59.339Z,18.26
2023-02-11T08:00:42.474Z,19.03
2023-02-11T08:03:27.235Z,19.33
2023-02-11T08:06:12.890Z,21.57
2023-02-11T08:08:56.545Z,21.41
2023-02-11T08:11:39.848Z,25.13
2023-02-11T08:14:23.084Z,28.00
2023-02-11T08:17:06.738Z,23.09
2023-02-11T08:19:51.781Z,26.57
2023-02-11T08:22:35.826Z,26.93
2023-02-11T08:25:19.150Z,27.29
2023-02-11T08:28:02.268Z,25.40
2023-02-11T08:30:45.430Z,29.83
2023-02-11T08:33:29.063Z,30.91
2023-02-11T08:36:15.760Z,31.83
2023-02-11T08:39:17.513Z,31.37
2023-02-11T08:42:02.132Z,32.35
2023-02-11T08:44:45.270Z,32.41
2023-02-11T08:47:28.397Z,31.95
2023-02-11T08:50:11.629Z,33.45
2023-02-11T08:52:56.217Z,33.65
2023-02-11T08:55:39.348Z,31.31
2023-02-11T08:58:23.681Z,32.15
2023-02-11T09:01:11.330Z,29.79
2023-02-11T09:03:55.398Z,33.02
2023-02-11T09:06:38.477Z,33.67
2023-02-11T09:09:22.989Z,31.87
2023-02-11T09:12:06.698Z,27.86
2023-02-11T09:14:50.133Z,29.77
2023-02-11T09:17:33.227Z,29.91
2023-02-11T09:20:16.257Z,31.28
2023-02-11T09:23:00.622Z,33.40
2023-02-11T09:25:45.149Z,27.69
2023-02-11T09:28:28.253Z,30.00
2023-02-11T09:31:13.169Z,29.65
2023-02-11T09:33:58.422Z,29.74
2023-02-11T09:36:42.026Z,31.68
2023-02-11T09:39:26.758Z,29.24
2023-02-11T09:42:40.607Z,26.49
2023-02-11T09:45:26.347Z,24.37
2023-02-11T09:48:16.023Z,20.90
2023-02-11T09:51:01.631Z,17.85
2023-02-11T09:53:45.054Z,16.15
2023-02-11T09:56:29.833Z,15.05
2023-02-11T09:59:17.619Z,12.48
2023-02-11T10:02:05.726Z,11.31
2023-02-11T10:05:23.089Z,10.54
2023-02-11T10:08:15.890Z,11.81
2023-02-11T10:11:05.607Z,14.73
2023-02-11T10:13:56.268Z,19.85
2023-02-11T10:16:54.151Z,23.20
2023-02-11T10:19:50.639Z,25.79
2023-02-11T10:22:39.139Z,25.45
2023-02-11T10:25:26.214Z,26.32
2023-02-11T10:28:15.707Z,27.13
2023-02-11T10:31:01.182Z,28.91
2023-02-11T10:33:49.094Z,29.86
2023-02-11T10:36:35.753Z,30.74
2023-02-11T10:39:20.444Z,30.42
2023-02-11T10:42:08.924Z,29.64
2023-02-11T10:45:00.870Z,30.94
2023-02-11T10:47:44.534Z,33.69
2023-02-11T10:50:32.647Z,33.18
2023-02-11T10:53:21.208Z,35.09
2023-02-11T10:56:05.647Z,37.29
2023-02-11T10:58:59.477Z,35.74
2023-02-11T11:01:47.841Z,37.65
2023-02-11T11:04:45.661Z,35.60
2023-02-11T11:07:32.133Z,33.48
2023-02-11T11:10:30.510Z,35.82
2023-02-11T11:13:32.336Z,35.37
2023-02-11T11:16:23.973Z,37.25
2023-02-11T11:19:21.801Z,35.99
2023-02-11T11:22:06.264Z,36.53
2023-02-11T11:24:56.071Z,36.17
2023-02-11T11:27:39.726Z,36.60
2023-02-11T11:30:26.502Z,37.38
2023-02-11T11:33:21.079Z,36.84
2023-02-11T11:36:08.832Z,37.98
2023-02-11T11:38:56.087Z,36.67
2023-02-11T11:41:52.661Z,35.91
2023-02-11T11:44:37.495Z,38.05
2023-02-11T11:47:41.096Z,37.87
2023-02-11T11:50:29.730Z,38.52
2023-02-11T11:53:17.632Z,38.52
2023-02-11T11:56:04.895Z,36.31
2023-02-11T11:58:50.407Z,34.53
2023-02-11T12:01:45.999Z,28.12
2023-02-11T12:04:51.864Z,23.53
2023-02-11T12:07:49.910Z,18.14
2023-02-11T12:10:49.843Z,15.67
2023-02-11T12:13:50.165Z,13.85
2023-02-11T12:16:45.932Z,11.88
2023-02-11T12:19:49.751Z,11.20
2023-02-11T12:22:46.562Z,10.25
2023-02-11T12:25:40.916Z,9.83
2023-02-11T12:28:32.948Z,9.42
2023-02-11T12:31:29.477Z,9.01
2023-02-11T12:34:30.689Z,8.36
2023-02-11T12:37:24.999Z,8.03
2023-02-11T12:40:17.119Z,7.10
2023-02-11T12:43:18.328Z,7.35
2023-02-11T12:46:30.021Z,7.22
2023-02-11T12:49:38.234Z,7.16
2023-02-11T12:52:34.633Z,6.79
2023-02-11T12:55:23.754Z,6.57
2023-02-11T12:58:14.245Z,6.58
2023-02-11T13:01:04.468Z,6.49
2023-02-11T13:03:52.656Z,6.52
2023-02-11T13:06:41.631Z,6.50
2023-02-11T13:09:31.616Z,6.50
2023-02-11T13:12:33.293Z,6.39
2023-02-11T13:15:17.175Z,6.35
2023-02-11T13:18:05.937Z,6.20
2023-02-11T13:20:54.734Z,6.33
2023-02-11T13:23:45.198Z,6.26
2023-02-11T13:26:33.853Z,5.80
2023-02-11T13:29:27.629Z,6.13
2023-02-11T13:32:12.734Z,6.40
2023-02-11T13:35:03.407Z,6.28
2023-02-11T13:37:49.220Z,6.14
2023-02-11T13:40:36.385Z,6.05
2023-02-11T13:43:24.651Z,6.03
2023-02-11T13:46:10.992Z,5.91
2023-02-11T13:48:55.174Z,5.94
2023-02-11T13:51:42.394Z,6.07
2023-02-11T13:54:31.340Z,5.97
2023-02-11T13:57:40.866Z,5.86
2023-02-11T14:00:51.915Z,5.69
2023-02-11T14:03:54.789Z,5.68
2023-02-11T14:07:00.732Z,5.60
2023-02-11T14:09:43.908Z,5.53
2023-02-11T14:12:36.514Z,5.38
2023-02-11T14:15:29.270Z,5.37
2023-02-11T14:18:40.385Z,5.37
2023-02-11T14:21:32.918Z,5.38
2023-02-11T14:24:52.157Z,5.15
2023-02-11T14:27:46.042Z,5.01
2023-02-11T14:30:46.274Z,5.04
2023-02-11T14:33:50.783Z,4.96
2023-02-11T14:37:02.300Z,4.83
2023-02-11T14:39:57.603Z,4.65
2023-02-11T14:42:40.874Z,4.65
2023-02-11T14:45:28.250Z,4.62
2023-02-11T14:48:17.933Z,4.63
2023-02-11T14:51:06.560Z,4.56
2023-02-11T14:53:53.070Z,4.51
2023-02-11T14:56:37.107Z,4.43
2023-02-11T14:59:23.685Z,4.36
2023-02-11T15:02:22.859Z,4.25
2023-02-11T15:05:19.877Z,4.18
2023-02-11T15:08:08.431Z,4.08
2023-02-11T15:10:56.808Z,4.07
2023-02-11T15:13:47.577Z,3.99
2023-02-11T15:16:31.169Z,3.92
2023-02-11T15:19:27.336Z,3.76
2023-02-11T15:22:20.788Z,3.70
2023-02-11T15:25:10.813Z,3.66
2023-02-11T15:27:56.683Z,3.58
2023-02-11T15:30:40.021Z,3.57
2023-02-11T15:33:25.480Z,3.41
2023-02-11T15:36:12.278Z,3.28
2023-02-11T15:39:21.452Z,3.42
2023-02-11T15:42:26.907Z,3.32
2023-02-11T15:45:13.666Z,3.27
2023-02-11T15:48:00.981Z,3.21
2023-02-11T15:50:50.270Z,3.20
2023-02-11T15:53:40.620Z,3.09
2023-02-11T15:56:30.788Z,3.02
2023-02-11T15:59:19.610Z,2.84
2023-02-11T16:02:09.616Z,2.81
2023-02-11T16:04:55.724Z,2.66
2023-02-11T16:07:41.732Z,2.61
2023-02-11T16:10:28.073Z,2.41
2023-02-11T16:13:21.219Z,2.35
2023-02-11T16:16:07.196Z,2.25
2023-02-11T16:19:04.375Z,2.19
2023-02-11T16:21:50.336Z,2.15
2023-02-11T16:24:35.781Z,2.01
2023-02-11T16:27:23.999Z,1.77
2023-02-11T16:30:25.412Z,1.70
2023-02-11T16:33:10.705Z,1.64
2023-02-11T16:35:53.864Z,1.61
2023-02-11T16:38:37.349Z,1.58
2023-02-11T16:41:20.381Z,1.58
2023-02-11T16:44:03.968Z,1.49
2023-02-11T16:46:49.177Z,1.37
2023-02-11T16:49:36.073Z,1.33
2023-02-11T16:52:20.162Z,1.24
2023-02-11T16:55:05.255Z,1.15
2023-02-11T16:57:48.451Z,1.13
2023-02-11T17:00:31.827Z,1.13
2023-02-11T17:03:23.650Z,1.13
2023-02-11T17:06:08.027Z,1.08
2023-02-11T17:08:51.248Z,1.13
2023-02-11T17:11:34.704Z,1.10
2023-02-11T17:14:18.364Z,1.08
2023-02-11T17:17:01.770Z,1.10
2023-02-11T17:19:47.962Z,1.16
2023-02-11T17:22:31.041Z,1.17
2023-02-11T17:25:14.328Z,1.20
2023-02-11T17:27:57.416Z,1.19
2023-02-11T17:30:43.863Z,1.12
2023-02-11T17:33:27.418Z,1.07
2023-02-11T17:36:12.521Z,1.11
2023-02-11T17:38:56.370Z,1.07
2023-02-11T17:41:40.127Z,1.01
2023-02-11T17:44:23.343Z,1.05
2023-02-11T17:47:07.348Z,1.00
2023-02-11T17:49:50.689Z,1.02
2023-02-11T17:52:36.724Z,1.04
2023-02-11T17:55:22.265Z,0.93
2023-02-11T17:58:07.674Z,1.04
2023-02-11T18:00:51.073Z,0.99
2023-02-11T18:03:34.492Z,0.99
2023-02-11T18:06:17.571Z,0.97
2023-02-11T18:09:04.388Z,1.01
2023-02-11T18:11:48.587Z,0.90
2023-02-11T18:14:31.784Z,0.95
2023-02-11T18:17:14.905Z,0.94
2023-02-11T18:19:58.523Z,0.87
2023-02-11T18:22:44.344Z,0.86
2023-02-11T18:25:30.094Z,0.81
2023-02-11T18:28:13.365Z,0.79
2023-02-11T18:30:58.696Z,0.75
2023-02-11T18:33:42.949Z,0.80
2023-02-11T18:36:26.185Z,0.75
2023-02-11T18:39:10.112Z,0.76
2023-02-11T18:41:56.919Z,0.74
2023-02-11T18:44:40.441Z,0.75
2023-02-11T18:47:23.498Z,0.71
2023-02-11T18:50:08.501Z,0.74
2023-02-11T18:52:51.973Z,0.73
2023-02-11T18:55:35.190Z,0.67
2023-02-11T18:58:21.242Z,0.64
2023-02-11T19:01:12.176Z,0.70
2023-02-11T19:03:56.287Z,0.67
2023-02-11T19:06:40.001Z,0.33
2023-02-11T19:09:24.266Z,0.14
2023-02-11T19:12:08.749Z,0.01
2023-02-11T19:14:53.644Z,-0.14
2023-02-11T19:17:36.909Z,-0.12
2023-02-11T19:20:22.801Z,-0.13
2023-02-11T19:23:05.909Z,-0.32
2023-02-11T19:25:49.715Z,-0.30
2023-02-11T19:28:33.079Z,-0.36
2023-02-11T19:31:17.855Z,-0.68
2023-02-11T19:34:01.366Z,-0.66
2023-02-11T19:36:44.922Z,-0.68
2023-02-11T19:39:28.671Z,-0.71
2023-02-11T19:42:12.286Z,-0.73
2023-02-11T19:44:55.557Z,-0.70
2023-02-11T19:47:40.193Z,-0.83
2023-02-11T19:50:23.595Z,-0.82
2023-02-11T19:53:06.868Z,-0.69
2023-02-11T19:55:51.079Z,-0.53
2023-02-11T19:58:34.635Z,-0.50
2023-02-11T20:01:22.069Z,-0.58
2023-02-11T20:04:07.223Z,-0.64
2023-02-11T20:06:50.646Z,-0.76
2023-02-11T20:09:34.117Z,-0.82
2023-02-11T20:12:17.291Z,-0.93
2023-02-11T20:15:00.347Z,-0.93
2023-02-11T20:17:43.807Z,-1.03
2023-02-11T20:20:28.933Z,-1.14
2023-02-11T20:23:12.025Z,-1.23
2023-02-11T20:25:55.387Z,-1.16
2023-02-11T20:28:39.209Z,-1.16
2023-02-11T20:31:23.901Z,-1.30
2023-02-11T20:34:07.387Z,-1.26
2023-02-11T20:36:52.963Z,-1.23
2023-02-11T20:39:37.570Z,-1.31
2023-02-11T20:42:21.849Z,-1.14
2023-02-11T20:45:05.153Z,-0.93
2023-02-11T20:47:48.358Z,-0.83
2023-02-11T20:50:31.471Z,-0.60
2023-02-11T20:53:16.057Z,-0.46
2023-02-11T20:56:02.782Z,-0.32
2023-02-11T20:58:45.991Z,-0.22
2023-02-11T21:01:31.351Z,-0.05
2023-02-11T21:04:16.595Z,0.02
2023-02-11T21:07:01.753Z,0.18
2023-02-11T21:09:47.510Z,0.16
2023-02-11T21:12:30.654Z,0.29
2023-02-11T21:15:13.792Z,-0.05
2023-02-11T21:17:57.189Z,-0.39
2023-02-11T21:20:40.412Z,-0.68
2023-02-11T21:23:23.632Z,-0.63
2023-02-11T21:26:08.897Z,-0.81
2023-02-11T21:28:53.250Z,-0.78
2023-02-11T21:31:37.662Z,-0.94
2023-02-11T21:34:22.395Z,-1.04
2023-02-11T21:37:05.518Z,-1.02
2023-02-11T21:39:48.535Z,-1.00
2023-02-11T21:42:33.190Z,-0.81
2023-02-11T21:45:16.718Z,-0.94
2023-02-11T21:48:00.153Z,-0.93
2023-02-11T21:50:44.399Z,-0.99
2023-02-11T21:53:27.773Z,-1.21
2023-02-11T21:56:13.768Z,-1.18
2023-02-11T21:59:00.284Z,-1.23
2023-02-11T22:01:43.670Z,-1.21
2023-02-11T22:04:27.051Z,-1.17
2023-02-11T22:07:10.242Z,-1.16
2023-02-11T22:09:54.868Z,-1.16
2023-02-11T22:12:38.079Z,-1.01
2023-02-11T22:15:22.760Z,-0.89
2023-02-11T22:18:06.238Z,-0.98
2023-02-11T22:20:59.132Z,-1.05
2023-02-11T22:23:42.443Z,-1.26
2023-02-11T22:26:27.110Z,-1.36
2023-02-11T22:29:10.931Z,-1.39
2023-02-11T22:31:55.596Z,-1.24
2023-02-11T22:34:38.863Z,-1.17
2023-02-11T22:37:22.138Z,-1.20
2023-02-11T22:40:06.001Z,-1.14
2023-02-11T22:42:49.117Z,-1.08
2023-02-11T22:45:35.051Z,-1.34
2023-02-11T22:48:23.014Z,-1.22
2023-02-11T22:51:08.079Z,-1.21
2023-02-11T22:53:53.324Z,-1.34
2023-02-11T22:56:37.108Z,-1.36
2023-02-11T22:59:20.370Z,-1.27
2023-02-11T23:02:04.222Z,-1.24
2023-02-11T23:04:49.991Z,-1.26
2023-02-11T23:07:33.421Z,-1.33
2023-02-11T23:10:16.595Z,-1.20
2023-02-11T23:12:59.834Z,-1.09
2023-02-11T23:15:45.248Z,-0.96
2023-02-11T23:18:28.459Z,-0.92
2023-02-11T23:21:17.062Z,-0.96
2023-02-11T23:24:02.336Z,-1.17
2023-02-11T23:26:45.643Z,-1.10
2023-02-11T23:29:29.126Z,-1.13
2023-02-11T23:32:12.944Z,-1.10
2023-02-11T23:34:56.134Z,-1.03
2023-02-11T23:37:40.791Z,-0.98
2023-02-11T23:40:24.191Z,-1.09
2023-02-11T23:43:07.291Z,-1.15
2023-02-11T23:45:52.314Z,-1.14
2023-02-11T23:48:37.908Z,-1.01
2023-02-11T23:51:21.658Z,-0.97
2023-02-11T23:54:06.217Z,-0.89
2023-02-11T23:56:49.260Z,-0.87
2023-02-11T23:59:32.505Z,-0.84
